createdAt,value
2018-07-05T00:02:37.399Z,17.80
2018-07-05T00:05:17.241Z,17.70
2018-07-05T00:07:56.982Z,17.70
2018-07-05T00:10:36.709Z,17.70
2018-07-05T00:13:16.430Z,17.80
2018-07-05T00:15:56.181Z,17.70
2018-07-05T00:18:35.807Z,17.70
2018-07-05T00:21:15.539Z,17.70
2018-07-05T00:23:55.284Z,17.70
2018-07-05T00:26:34.881Z,17.70
2018-07-05T00:29:14.642Z,17.60
2018-07-05T00:31:54.348Z,17.70
2018-07-05T00:34:34.258Z,17.70
2018-07-05T00:37:14.089Z,17.60
2018-07-05T00:39:53.952Z,17.60
2018-07-05T00:42:33.802Z,17.50
2018-07-05T00:45:13.615Z,17.60
2018-07-05T00:47:53.307Z,17.50
2018-07-05T00:50:33.408Z,17.50
2018-07-05T00:53:12.935Z,17.50
2018-07-05T00:55:52.640Z,17.50
2018-07-05T00:58:32.408Z,17.50
2018-07-05T01:01:12.233Z,17.40
2018-07-05T01:03:51.924Z,17.40
2018-07-05T01:06:31.755Z,17.30
2018-07-05T01:09:11.497Z,17.30
2018-07-05T01:11:51.190Z,17.30
2018-07-05T01:14:31.112Z,17.30
2018-07-05T01:17:10.800Z,17.20
2018-07-05T01:19:50.334Z,17.20
2018-07-05T01:22:30.132Z,17.20
2018-07-05T01:25:09.983Z,17.20
2018-07-05T01:27:49.822Z,17.20
2018-07-05T01:30:29.487Z,17.20
2018-07-05T01:33:09.079Z,17.20
2018-07-05T01:35:48.871Z,17.20
2018-07-05T01:38:28.708Z,17.10
2018-07-05T01:41:08.486Z,17.10
2018-07-05T01:43:48.263Z,17.10
2018-07-05T01:46:28.006Z,17.00
2018-07-05T01:49:07.758Z,17.00
2018-07-05T01:51:47.589Z,16.90
2018-07-05T01:54:27.327Z,16.90
2018-07-05T01:57:07.011Z,16.90
2018-07-05T01:59:46.744Z,16.90
2018-07-05T02:02:26.548Z,16.90
2018-07-05T02:05:06.169Z,16.80
2018-07-05T02:07:46.825Z,16.80
2018-07-05T02:10:26.501Z,16.80
2018-07-05T02:13:06.461Z,16.70
2018-07-05T02:15:46.465Z,16.70
2018-07-05T02:18:26.342Z,16.60
2018-07-05T02:21:06.163Z,16.60
2018-07-05T02:23:46.020Z,16.70
2018-07-05T02:26:25.807Z,16.60
2018-07-05T02:29:05.510Z,16.50
2018-07-05T02:31:45.208Z,16.50
2018-07-05T02:34:24.980Z,16.50
2018-07-05T02:37:04.991Z,16.50
2018-07-05T02:39:48.769Z,16.40
2018-07-05T02:42:28.546Z,16.40
2018-07-05T02:45:08.324Z,16.40
2018-07-05T02:47:47.946Z,16.40
2018-07-05T02:50:27.813Z,16.30
2018-07-05T02:53:07.690Z,16.30
2018-07-05T02:55:47.398Z,16.30
2018-07-05T02:58:27.106Z,16.30
2018-07-05T03:01:06.830Z,16.30
2018-07-05T03:03:46.411Z,16.20
2018-07-05T03:06:26.159Z,16.20
2018-07-05T03:09:05.694Z,16.20
2018-07-05T03:11:45.248Z,16.20
2018-07-05T03:14:25.101Z,16.20
2018-07-05T03:17:05.014Z,16.10
2018-07-05T03:19:44.619Z,16.10
2018-07-05T03:22:24.302Z,16.10
2018-07-05T03:25:04.015Z,16.10
2018-07-05T03:27:43.771Z,16.10
2018-07-05T03:30:23.587Z,16.00
2018-07-05T03:33:03.413Z,16.10
2018-07-05T03:35:43.102Z,16.10
2018-07-05T03:38:22.711Z,16.10
2018-07-05T03:41:02.355Z,16.10
2018-07-05T03:43:42.140Z,16.20
2018-07-05T03:46:21.805Z,16.20
2018-07-05T03:49:01.570Z,16.20
2018-07-05T03:51:41.280Z,16.20
2018-07-05T03:54:21.005Z,16.30
2018-07-05T03:57:00.897Z,16.40
2018-07-05T03:59:40.748Z,16.50
2018-07-05T04:02:20.576Z,16.60
2018-07-05T04:05:00.402Z,16.60
2018-07-05T04:07:40.127Z,16.60
2018-07-05T04:10:19.970Z,16.60
2018-07-05T04:12:59.876Z,16.60
2018-07-05T04:15:39.399Z,16.70
2018-07-05T04:18:18.999Z,16.70
2018-07-05T04:20:58.744Z,16.70
2018-07-05T04:23:38.361Z,16.70
2018-07-05T04:26:18.000Z,16.70
2018-07-05T04:28:57.907Z,16.80
2018-07-05T04:31:37.618Z,16.90
2018-07-05T04:34:17.461Z,16.90
2018-07-05T04:36:57.326Z,17.00
2018-07-05T04:39:37.160Z,17.10
2018-07-05T04:42:16.992Z,17.30
2018-07-05T04:44:57.076Z,17.50
2018-07-05T04:47:36.879Z,17.60
2018-07-05T04:50:16.617Z,17.70
2018-07-05T04:52:56.261Z,17.80
2018-07-05T04:55:36.076Z,17.80
2018-07-05T04:58:17.318Z,17.90
2018-07-05T05:00:57.038Z,17.90
2018-07-05T05:03:37.043Z,17.90
2018-07-05T05:06:16.725Z,17.90
2018-07-05T05:08:56.451Z,17.90
2018-07-05T05:11:36.204Z,17.80
2018-07-05T05:14:15.887Z,17.80
2018-07-05T05:16:55.678Z,17.80
2018-07-05T05:19:35.422Z,17.90
2018-07-05T05:22:15.166Z,18.00
2018-07-05T05:24:54.792Z,18.20
2018-07-05T05:27:34.607Z,18.30
2018-07-05T05:30:14.497Z,18.40
2018-07-05T05:32:54.326Z,18.60
2018-07-05T05:35:34.188Z,18.70
2018-07-05T05:38:13.921Z,18.70
2018-07-05T05:40:53.667Z,18.80
2018-07-05T05:43:33.499Z,18.90
2018-07-05T05:46:13.224Z,19.00
2018-07-05T05:48:53.109Z,19.10
2018-07-05T05:51:32.788Z,19.20
2018-07-05T05:54:12.475Z,19.20
2018-07-05T05:56:52.466Z,19.30
2018-07-05T05:59:32.312Z,19.30
2018-07-05T06:02:12.008Z,19.40
2018-07-05T06:04:51.698Z,19.40
2018-07-05T06:07:31.596Z,19.40
2018-07-05T06:10:11.246Z,19.40
2018-07-05T06:12:51.114Z,19.50
2018-07-05T06:15:30.822Z,19.60
2018-07-05T06:18:10.717Z,19.60
2018-07-05T06:20:50.362Z,19.70
2018-07-05T06:23:30.371Z,19.70
2018-07-05T06:26:10.018Z,19.80
2018-07-05T06:28:49.726Z,19.80
2018-07-05T06:31:29.730Z,19.80
2018-07-05T06:34:09.456Z,19.80
2018-07-05T06:36:49.279Z,19.80
2018-07-05T06:39:28.882Z,19.90
2018-07-05T06:42:08.429Z,19.90
2018-07-05T06:44:48.079Z,19.90
2018-07-05T06:47:27.837Z,19.90
2018-07-05T06:50:07.696Z,19.80
2018-07-05T06:52:47.387Z,19.80
2018-07-05T06:55:27.108Z,19.90
2018-07-05T06:58:06.803Z,20.00
2018-07-05T07:00:46.413Z,20.00
2018-07-05T07:03:26.152Z,20.10
2018-07-05T07:06:05.904Z,20.20
2018-07-05T07:08:45.772Z,20.40
2018-07-05T07:11:25.629Z,20.40
2018-07-05T07:14:05.403Z,20.40
2018-07-05T07:16:45.165Z,20.40
2018-07-05T07:19:25.015Z,20.50
2018-07-05T07:22:04.877Z,20.60
2018-07-05T07:24:44.426Z,20.80
2018-07-05T07:27:24.141Z,20.80
2018-07-05T07:30:03.965Z,20.90
2018-07-05T07:32:43.703Z,21.00
2018-07-05T07:35:23.276Z,21.10
2018-07-05T07:38:03.148Z,21.20
2018-07-05T07:40:42.962Z,21.20
2018-07-05T07:43:10.415Z,21.20
2018-07-05T07:45:37.867Z,21.20
2018-07-05T07:48:05.186Z,21.20
2018-07-05T07:50:32.590Z,21.40
2018-07-05T07:52:59.940Z,21.40
2018-07-05T07:55:27.330Z,21.30
2018-07-05T07:57:54.697Z,21.20
2018-07-05T08:00:22.074Z,21.20
2018-07-05T08:02:49.448Z,21.30
2018-07-05T08:05:16.843Z,21.50
2018-07-05T08:07:44.203Z,21.50
2018-07-05T08:10:11.599Z,21.40
2018-07-05T08:12:38.971Z,21.40
2018-07-05T08:15:06.483Z,21.40
2018-07-05T08:17:33.864Z,21.50
2018-07-05T08:20:01.223Z,21.50
2018-07-05T08:22:28.600Z,21.40
2018-07-05T08:24:55.960Z,21.40
2018-07-05T08:27:23.359Z,21.40
2018-07-05T08:29:50.711Z,21.40
2018-07-05T08:32:18.152Z,21.60
2018-07-05T08:34:45.535Z,21.70
2018-07-05T08:37:13.135Z,21.80
2018-07-05T08:39:40.459Z,21.90
2018-07-05T08:42:07.865Z,22.10
2018-07-05T08:44:35.246Z,22.20
2018-07-05T08:47:02.593Z,22.30
2018-07-05T08:49:30.005Z,22.30
2018-07-05T08:51:57.384Z,22.40
2018-07-05T08:54:24.768Z,22.60
2018-07-05T08:56:52.154Z,22.70
2018-07-05T08:59:19.551Z,22.80
2018-07-05T09:04:14.769Z,22.70
2018-07-05T09:06:42.125Z,22.70
2018-07-05T09:09:09.485Z,22.70
2018-07-05T09:11:36.873Z,22.80
2018-07-05T09:16:31.908Z,22.80
2018-07-05T09:18:59.291Z,22.70
2018-07-05T09:21:26.682Z,22.80
2018-07-05T09:23:54.101Z,22.90
2018-07-05T09:26:21.472Z,23.10
2018-07-05T09:28:48.843Z,23.10
2018-07-05T09:31:16.267Z,23.10
2018-07-05T09:33:43.618Z,23.00
2018-07-05T09:38:38.696Z,23.00
2018-07-05T09:41:06.096Z,23.10
2018-07-05T09:43:33.485Z,23.20
2018-07-05T09:46:00.881Z,23.40
2018-07-05T09:48:28.274Z,23.50
2018-07-05T09:50:55.703Z,23.50
2018-07-05T09:53:23.055Z,23.40
2018-07-05T09:55:50.446Z,23.30
2018-07-05T09:58:17.846Z,23.30
2018-07-05T10:00:49.763Z,23.20
2018-07-05T10:03:18.233Z,23.30
2018-07-05T10:05:45.985Z,23.20
2018-07-05T10:08:13.692Z,23.10
2018-07-05T10:10:41.060Z,23.00
2018-07-05T10:13:08.565Z,23.20
2018-07-05T10:15:35.900Z,23.20
2018-07-05T10:18:03.379Z,23.10
2018-07-05T10:20:30.819Z,23.10
2018-07-05T10:22:58.178Z,23.10
2018-07-05T10:25:25.606Z,23.10
2018-07-05T10:27:52.977Z,23.30
2018-07-05T10:30:32.821Z,23.30
2018-07-05T10:33:12.579Z,23.20
2018-07-05T10:35:39.958Z,23.20
2018-07-05T10:38:07.314Z,23.20
2018-07-05T10:40:46.922Z,23.20
2018-07-05T10:43:26.731Z,23.20
2018-07-05T10:46:06.490Z,23.20
2018-07-05T10:48:46.221Z,23.40
2018-07-05T10:51:25.866Z,23.60
2018-07-05T10:56:39.784Z,23.50
2018-07-05T10:59:19.659Z,23.50
2018-07-05T11:01:59.557Z,23.60
2018-07-05T11:04:39.348Z,23.70
2018-07-05T11:07:18.943Z,23.70
2018-07-05T11:09:58.602Z,23.80
2018-07-05T11:12:38.293Z,23.90
2018-07-05T11:15:18.174Z,24.00
2018-07-05T11:17:57.891Z,24.10
2018-07-05T11:20:37.509Z,24.00
2018-07-05T11:23:17.295Z,23.80
2018-07-05T11:25:56.881Z,23.80
2018-07-05T11:28:36.533Z,23.70
2018-07-05T11:31:16.069Z,23.60
2018-07-05T11:33:55.690Z,23.60
2018-07-05T11:36:35.571Z,23.50
2018-07-05T11:39:15.198Z,23.40
2018-07-05T11:41:55.092Z,23.40
2018-07-05T11:44:34.993Z,23.30
2018-07-05T11:47:14.891Z,23.30
2018-07-05T11:49:55.729Z,23.20
2018-07-05T11:52:35.410Z,23.20
2018-07-05T11:55:15.200Z,23.10
2018-07-05T11:57:54.883Z,23.00
2018-07-05T12:00:34.776Z,23.00
2018-07-05T12:03:14.547Z,22.90
2018-07-05T12:05:54.635Z,23.00
2018-07-05T12:08:34.448Z,23.10
2018-07-05T12:11:15.134Z,23.10
2018-07-05T12:13:54.756Z,23.20
2018-07-05T12:16:34.680Z,23.20
2018-07-05T12:19:14.564Z,23.20
2018-07-05T12:21:54.809Z,23.10
2018-07-05T12:24:34.644Z,23.20
2018-07-05T12:27:14.391Z,23.20
2018-07-05T12:29:54.258Z,23.20
2018-07-05T12:32:33.848Z,23.20
2018-07-05T12:35:14.233Z,23.20
2018-07-05T12:37:54.134Z,23.30
2018-07-05T12:40:34.423Z,23.40
2018-07-05T12:43:14.655Z,23.50
2018-07-05T12:45:54.704Z,23.50
2018-07-05T12:48:34.972Z,23.50
2018-07-05T12:51:14.703Z,23.50
2018-07-05T12:53:54.502Z,23.40
2018-07-05T12:56:34.375Z,23.30
2018-07-05T12:59:14.047Z,23.30
2018-07-05T13:01:53.726Z,23.20
2018-07-05T13:04:33.550Z,23.20
2018-07-05T13:07:13.327Z,23.00
2018-07-05T13:09:52.939Z,23.00
2018-07-05T13:12:32.759Z,23.10
2018-07-05T13:17:46.346Z,23.10
2018-07-05T13:20:26.043Z,23.20
2018-07-05T13:23:05.890Z,23.30
2018-07-05T13:25:45.657Z,23.30
2018-07-05T13:28:25.209Z,23.30
2018-07-05T13:31:04.926Z,23.30
2018-07-05T13:33:47.112Z,23.30
2018-07-05T13:36:27.115Z,23.40
2018-07-05T13:39:06.673Z,23.40
2018-07-05T13:41:46.402Z,23.20
2018-07-05T13:44:28.870Z,23.10
2018-07-05T13:47:08.886Z,23.10
2018-07-05T13:49:48.708Z,23.10
2018-07-05T13:52:28.518Z,23.00
2018-07-05T13:55:08.277Z,23.10
2018-07-05T13:57:47.929Z,23.10
2018-07-05T14:00:27.595Z,22.90
2018-07-05T14:03:07.473Z,22.90
2018-07-05T14:05:47.379Z,22.80
2018-07-05T14:08:27.131Z,22.90
2018-07-05T14:11:06.912Z,22.80
2018-07-05T14:13:46.581Z,22.80
2018-07-05T14:16:26.463Z,22.70
2018-07-05T14:19:06.396Z,22.70
2018-07-05T14:21:46.280Z,22.60
2018-07-05T14:24:26.236Z,22.60
2018-07-05T14:27:06.043Z,22.60
2018-07-05T14:29:45.714Z,22.60
2018-07-05T14:32:25.273Z,22.60
2018-07-05T14:35:04.933Z,22.60
2018-07-05T14:37:44.644Z,22.60
2018-07-05T14:40:25.573Z,22.60
2018-07-05T14:43:05.429Z,22.50
2018-07-05T14:45:45.106Z,22.50
2018-07-05T14:48:25.038Z,22.50
2018-07-05T14:51:05.038Z,22.50
2018-07-05T14:53:44.675Z,22.50
2018-07-05T14:56:24.403Z,22.50
2018-07-05T14:59:04.090Z,22.40
2018-07-05T15:01:43.910Z,22.40
2018-07-05T15:06:57.351Z,22.40
2018-07-05T15:09:36.879Z,22.50
2018-07-05T15:12:16.616Z,22.60
2018-07-05T15:14:56.452Z,22.60
2018-07-05T15:17:36.192Z,22.60
2018-07-05T15:20:16.119Z,22.50
2018-07-05T15:22:56.048Z,22.40
2018-07-05T15:25:35.832Z,22.30
2018-07-05T15:28:15.478Z,22.30
2018-07-05T15:30:55.286Z,22.30
2018-07-05T15:33:34.968Z,22.40
2018-07-05T15:36:14.560Z,22.30
2018-07-05T15:38:54.347Z,22.30
2018-07-05T15:41:34.185Z,22.20
2018-07-05T15:44:14.573Z,22.20
2018-07-05T15:46:54.812Z,22.20
2018-07-05T15:52:08.202Z,22.20
2018-07-05T15:54:48.364Z,22.20
2018-07-05T15:57:28.684Z,22.20
2018-07-05T16:00:09.263Z,22.30
2018-07-05T16:02:49.165Z,22.30
2018-07-05T16:05:28.878Z,22.30
2018-07-05T16:08:08.557Z,22.20
2018-07-05T16:10:48.475Z,22.20
2018-07-05T16:13:28.228Z,22.00
2018-07-05T16:16:08.030Z,22.00
2018-07-05T16:18:47.794Z,21.90
2018-07-05T16:21:27.681Z,21.90
2018-07-05T16:24:07.416Z,21.80
2018-07-05T16:26:47.120Z,21.80
2018-07-05T16:29:26.921Z,21.80
2018-07-05T16:32:06.575Z,21.90
2018-07-05T16:34:46.252Z,21.90
2018-07-05T16:37:26.046Z,21.90
2018-07-05T16:40:05.964Z,21.90
2018-07-05T16:42:45.851Z,21.90
2018-07-05T16:45:25.673Z,22.00
2018-07-05T16:48:05.275Z,22.00
2018-07-05T16:50:44.832Z,22.00
2018-07-05T16:53:24.588Z,21.90
2018-07-05T16:58:38.311Z,21.70
2018-07-05T17:01:18.160Z,21.60
2018-07-05T17:03:57.849Z,21.50
2018-07-05T17:06:37.606Z,21.50
2018-07-05T17:09:17.348Z,21.50
2018-07-05T17:11:57.834Z,21.40
2018-07-05T17:14:37.408Z,21.40
2018-07-05T17:17:17.177Z,21.30
2018-07-05T17:19:57.302Z,21.30
2018-07-05T17:22:38.084Z,21.30
2018-07-05T17:25:17.844Z,21.30
2018-07-05T17:27:57.687Z,21.30
2018-07-05T17:30:37.426Z,21.20
2018-07-05T17:33:17.137Z,21.10
2018-07-05T17:35:57.067Z,21.00
2018-07-05T17:38:36.707Z,20.90
2018-07-05T17:41:16.308Z,20.90
2018-07-05T17:43:56.062Z,20.80
2018-07-05T17:46:35.741Z,20.70
2018-07-05T17:49:15.390Z,20.60
2018-07-05T17:51:55.046Z,20.50
2018-07-05T17:54:34.868Z,20.50
2018-07-05T17:57:14.561Z,20.40
2018-07-05T17:59:54.345Z,20.40
2018-07-05T18:02:34.239Z,20.30
2018-07-05T18:05:13.927Z,20.30
2018-07-05T18:07:53.547Z,20.20
2018-07-05T18:10:33.345Z,20.20
2018-07-05T18:13:13.163Z,20.10
2018-07-05T18:15:52.938Z,20.10
2018-07-05T18:18:32.845Z,20.10
2018-07-05T18:21:12.740Z,20.00
2018-07-05T18:23:52.430Z,20.00
2018-07-05T18:29:06.367Z,19.90
2018-07-05T18:31:46.247Z,19.90
2018-07-05T18:34:25.882Z,19.80
2018-07-05T18:37:05.782Z,19.80
2018-07-05T18:39:45.463Z,19.70
2018-07-05T18:42:25.328Z,19.70
2018-07-05T18:45:05.075Z,19.70
2018-07-05T18:47:44.874Z,19.60
2018-07-05T18:50:24.652Z,19.60
2018-07-05T18:53:04.307Z,19.60
2018-07-05T18:55:43.805Z,19.60
2018-07-05T19:00:57.382Z,19.50
2018-07-05T19:03:37.136Z,19.50
2018-07-05T19:06:16.917Z,19.50
2018-07-05T19:08:56.797Z,19.40
2018-07-05T19:11:36.607Z,19.30
2018-07-05T19:14:16.157Z,19.30
2018-07-05T19:16:55.896Z,19.20
2018-07-05T19:19:35.785Z,19.10
2018-07-05T19:22:15.495Z,19.00
2018-07-05T19:24:55.340Z,19.00
2018-07-05T19:27:35.073Z,19.00
2018-07-05T19:30:14.964Z,19.00
2018-07-05T19:32:55.406Z,18.90
2018-07-05T19:35:35.272Z,18.90
2018-07-05T19:38:15.279Z,18.90
2018-07-05T19:40:55.649Z,18.80
2018-07-05T19:43:35.592Z,18.80
2018-07-05T19:46:15.476Z,18.80
2018-07-05T19:48:55.471Z,18.80
2018-07-05T19:51:35.558Z,18.70
2018-07-05T19:54:17.593Z,18.70
2018-07-05T19:56:57.591Z,18.70
2018-07-05T19:59:37.453Z,18.70
2018-07-05T20:02:17.397Z,18.70
2018-07-05T20:04:57.242Z,18.60
2018-07-05T20:07:36.878Z,18.60
2018-07-05T20:10:16.484Z,18.60
2018-07-05T20:12:58.207Z,18.50
2018-07-05T20:15:38.215Z,18.50
2018-07-05T20:18:17.889Z,18.50
2018-07-05T20:23:32.034Z,18.40
2018-07-05T20:26:11.797Z,18.40
2018-07-05T20:28:51.514Z,18.40
2018-07-05T20:31:31.253Z,18.30
2018-07-05T20:34:11.084Z,18.30
2018-07-05T20:36:51.096Z,18.40
2018-07-05T20:39:31.002Z,18.30
2018-07-05T20:42:10.675Z,18.30
2018-07-05T20:44:50.419Z,18.20
2018-07-05T20:47:30.234Z,18.20
2018-07-05T20:50:09.953Z,18.20
2018-07-05T20:52:49.817Z,18.20
2018-07-05T20:55:29.558Z,18.10
2018-07-05T20:58:09.591Z,18.10
2018-07-05T21:00:49.539Z,18.00
2018-07-05T21:03:29.287Z,17.90
2018-07-05T21:06:09.356Z,17.90
2018-07-05T21:08:49.030Z,17.80
2018-07-05T21:11:28.893Z,17.80
2018-07-05T21:14:08.506Z,17.80
2018-07-05T21:16:48.289Z,17.80
2018-07-05T21:19:28.040Z,17.70
2018-07-05T21:22:07.948Z,17.70
2018-07-05T21:24:47.688Z,17.60
2018-07-05T21:27:27.252Z,17.60
2018-07-05T21:30:07.049Z,17.60
2018-07-05T21:32:46.763Z,17.50
2018-07-05T21:35:26.636Z,17.50
2018-07-05T21:38:06.468Z,17.50
2018-07-05T21:40:46.595Z,17.50
2018-07-05T21:43:26.635Z,17.50
2018-07-05T21:46:06.460Z,17.50
2018-07-05T21:48:46.412Z,17.40
2018-07-05T21:51:26.340Z,17.50
2018-07-05T21:54:06.303Z,17.40
2018-07-05T21:56:46.174Z,17.50
2018-07-05T21:59:25.895Z,17.50
2018-07-05T22:02:05.698Z,17.50
2018-07-05T22:04:45.519Z,17.40
2018-07-05T22:07:25.199Z,17.50
2018-07-05T22:10:05.087Z,17.50
2018-07-05T22:12:44.976Z,17.50
2018-07-05T22:15:24.931Z,17.50
2018-07-05T22:18:10.080Z,17.50
2018-07-05T22:20:55.317Z,17.50
2018-07-05T22:23:40.451Z,17.50
2018-07-05T22:26:25.520Z,17.50
2018-07-05T22:29:10.576Z,17.50
2018-07-05T22:31:57.123Z,17.50
2018-07-05T22:34:36.985Z,17.50
2018-07-05T22:37:18.103Z,17.50
2018-07-05T22:39:58.512Z,17.60
2018-07-05T22:42:38.454Z,17.50
2018-07-05T22:45:18.245Z,17.50
2018-07-05T22:47:58.033Z,17.50
2018-07-05T22:50:37.987Z,17.40
2018-07-05T22:53:17.932Z,17.40
2018-07-05T22:55:57.709Z,17.40
2018-07-05T22:58:37.616Z,17.40
2018-07-05T23:01:17.338Z,17.50
2018-07-05T23:03:57.497Z,17.50
2018-07-05T23:06:37.287Z,17.50
2018-07-05T23:09:16.990Z,17.50
2018-07-05T23:11:56.915Z,17.40
2018-07-05T23:14:36.837Z,17.40
2018-07-05T23:17:16.756Z,17.50
2018-07-05T23:19:56.608Z,17.50
2018-07-05T23:22:36.586Z,17.40
2018-07-05T23:25:16.367Z,17.40
2018-07-05T23:27:56.322Z,17.40
2018-07-05T23:30:36.094Z,17.40
2018-07-05T23:33:15.960Z,17.40
2018-07-05T23:35:55.727Z,17.40
2018-07-05T23:38:35.524Z,17.40
2018-07-05T23:41:15.183Z,17.40
2018-07-05T23:43:55.011Z,17.40
2018-07-05T23:46:34.775Z,17.40
2018-07-05T23:49:14.762Z,17.40
2018-07-05T23:51:54.879Z,17.30
2018-07-05T23:54:34.561Z,17.30
2018-07-05T23:57:14.205Z,17.30
2018-07-05T23:59:54.128Z,17.30
